createdAt,value
2023-04-07T00:04:10.866Z,9.53
2023-04-07T00:09:20.578Z,10.53
2023-04-07T00:14:26.456Z,10.20
2023-04-07T00:19:35.412Z,9.53
2023-04-07T00:24:44.155Z,11.30
2023-04-07T00:29:50.227Z,11.53
2023-04-07T00:34:56.512Z,10.33
2023-04-07T00:40:05.828Z,10.60
2023-04-07T00:45:14.933Z,10.90
2023-04-07T00:50:22.615Z,11.07
2023-04-07T00:55:33.213Z,9.43
2023-04-07T01:00:45.305Z,9.20
2023-04-07T01:05:59.023Z,9.60
2023-04-07T01:11:15.023Z,10.50
2023-04-07T01:16:30.428Z,9.20
2023-04-07T01:21:39.073Z,11.00
2023-04-07T01:26:49.286Z,11.40
2023-04-07T01:32:02.965Z,11.13
2023-04-07T01:37:11.654Z,11.17
2023-04-07T01:42:19.659Z,12.40
2023-04-07T01:47:32.035Z,12.17
2023-04-07T01:52:39.574Z,13.37
2023-04-07T01:57:45.521Z,12.67
2023-04-07T02:03:05.232Z,11.70
2023-04-07T02:08:17.028Z,11.07
2023-04-07T02:13:27.942Z,10.10
2023-04-07T02:18:38.433Z,10.03
2023-04-07T02:23:44.254Z,11.60
2023-04-07T02:28:51.146Z,11.17
2023-04-07T02:33:59.305Z,10.27
2023-04-07T02:39:06.570Z,11.37
2023-04-07T02:44:14.436Z,9.60
2023-04-07T02:49:24.877Z,10.13
2023-04-07T02:54:35.653Z,12.13
2023-04-07T02:59:42.127Z,10.50
2023-04-07T03:04:54.823Z,10.40
2023-04-07T03:10:05.053Z,10.53
2023-04-07T03:15:13.242Z,10.57
2023-04-07T03:20:28.747Z,10.90
2023-04-07T03:25:40.137Z,11.27
2023-04-07T03:30:46.821Z,10.50
2023-04-07T03:35:57.907Z,10.63
2023-04-07T03:41:04.506Z,10.20
2023-04-07T03:46:11.222Z,9.33
2023-04-07T03:51:21.515Z,9.53
2023-04-07T03:56:32.558Z,9.33
2023-04-07T04:01:39.212Z,8.93
2023-04-07T04:06:56.908Z,9.57
2023-04-07T04:12:23.278Z,8.63
2023-04-07T04:17:42.208Z,9.67
2023-04-07T04:22:57.175Z,9.67
2023-04-07T04:28:04.179Z,9.17
2023-04-07T04:33:10.609Z,10.00
2023-04-07T04:38:26.576Z,9.90
2023-04-07T04:43:38.691Z,8.87
2023-04-07T04:48:53.761Z,9.17
2023-04-07T04:54:04.362Z,11.10
2023-04-07T04:59:12.602Z,10.90
2023-04-07T05:04:31.515Z,11.70
2023-04-07T05:09:50.790Z,12.13
2023-04-07T05:14:57.987Z,11.70
2023-04-07T05:20:03.169Z,11.70
2023-04-07T05:25:22.403Z,11.10
2023-04-07T05:30:32.558Z,12.10
2023-04-07T05:35:42.645Z,13.23
2023-04-07T05:40:50.899Z,11.73
2023-04-07T05:46:13.009Z,13.13
2023-04-07T05:51:26.571Z,13.03
2023-04-07T05:56:36.349Z,12.17
2023-04-07T06:01:42.377Z,14.40
2023-04-07T06:06:52.775Z,13.37
2023-04-07T06:12:01.920Z,10.60
2023-04-07T06:17:09.325Z,11.60
2023-04-07T06:22:17.144Z,10.23
2023-04-07T06:27:25.155Z,11.40
2023-04-07T06:32:32.369Z,10.33
2023-04-07T06:37:37.734Z,10.47
2023-04-07T06:42:46.912Z,9.77
2023-04-07T06:48:05.119Z,11.13
2023-04-07T06:53:12.562Z,12.30
2023-04-07T06:58:23.339Z,11.73
2023-04-07T07:03:29.825Z,10.33
2023-04-07T07:08:37.029Z,9.77
2023-04-07T07:13:47.874Z,9.93
2023-04-07T07:19:00.748Z,11.77
2023-04-07T07:24:07.828Z,12.73
2023-04-07T07:29:16.299Z,9.63
2023-04-07T07:34:21.478Z,11.17
2023-04-07T07:39:29.292Z,7.60
2023-04-07T07:44:36.944Z,7.70
2023-04-07T07:49:46.573Z,8.13
2023-04-07T07:54:52.030Z,8.23
2023-04-07T08:00:00.757Z,8.00
2023-04-07T08:05:05.906Z,8.57
2023-04-07T08:10:16.977Z,8.17
2023-04-07T08:15:24.813Z,8.83
2023-04-07T08:20:29.917Z,8.53
2023-04-07T08:25:36.424Z,8.27
2023-04-07T08:30:44.099Z,7.80
2023-04-07T08:35:51.509Z,8.60
2023-04-07T08:41:03.961Z,8.00
2023-04-07T08:46:17.542Z,8.43
2023-04-07T08:51:30.445Z,9.63
2023-04-07T08:56:36.899Z,8.50
2023-04-07T09:01:45.081Z,8.60
2023-04-07T09:06:58.323Z,9.27
2023-04-07T09:12:03.523Z,8.67
2023-04-07T09:17:11.173Z,7.93
2023-04-07T09:22:36.995Z,8.37
2023-04-07T09:27:42.267Z,8.60
2023-04-07T09:32:50.377Z,7.90
2023-04-07T09:38:14.056Z,10.57
2023-04-07T09:43:21.934Z,7.63
2023-04-07T09:48:29.607Z,7.73
2023-04-07T09:53:47.030Z,6.83
2023-04-07T09:58:54.666Z,7.07
2023-04-07T10:04:05.170Z,6.70
2023-04-07T10:09:10.645Z,7.10
2023-04-07T10:14:18.463Z,6.63
2023-04-07T10:19:29.272Z,8.13
2023-04-07T10:24:48.101Z,8.80
2023-04-07T10:29:55.835Z,8.60
2023-04-07T10:35:04.101Z,8.60
2023-04-07T10:40:32.470Z,8.63
2023-04-07T10:45:57.251Z,8.30
2023-04-07T10:51:20.788Z,9.50
2023-04-07T10:56:27.236Z,7.87
2023-04-07T11:01:32.402Z,8.17
2023-04-07T11:06:54.270Z,7.63
2023-04-07T11:12:01.759Z,8.80
2023-04-07T11:17:09.195Z,8.20
2023-04-07T11:27:29.100Z,9.07
2023-04-07T11:32:35.268Z,9.93
2023-04-07T11:37:43.050Z,8.73
2023-04-07T11:42:48.100Z,9.10
2023-04-07T11:47:54.782Z,9.07
2023-04-07T11:53:03.700Z,7.87
2023-04-07T11:58:14.893Z,7.07
2023-04-07T12:03:20.269Z,7.73
2023-04-07T12:08:40.449Z,6.70
2023-04-07T12:13:47.430Z,8.13
2023-04-07T12:18:53.213Z,7.87
2023-04-07T12:24:00.871Z,8.47
2023-04-07T12:29:07.308Z,8.67
2023-04-07T12:34:12.685Z,8.40
2023-04-07T12:39:20.632Z,8.00
2023-04-07T12:44:27.307Z,7.23
2023-04-07T12:49:34.498Z,8.00
2023-04-07T12:54:48.214Z,8.37
2023-04-07T12:59:53.510Z,7.97
2023-04-07T13:05:01.680Z,8.73
2023-04-07T13:10:11.705Z,7.63
2023-04-07T13:15:16.932Z,8.80
2023-04-07T13:20:28.260Z,7.70
2023-04-07T13:25:36.998Z,6.77
2023-04-07T13:30:43.110Z,6.97
2023-04-07T13:35:48.295Z,5.97
2023-04-07T13:40:58.099Z,5.07
2023-04-07T13:46:07.801Z,5.73
2023-04-07T13:51:17.176Z,5.73
2023-04-07T13:56:25.196Z,5.73
2023-04-07T14:01:30.621Z,6.13
2023-04-07T14:06:37.467Z,6.83
2023-04-07T14:11:47.465Z,6.73
2023-04-07T14:16:54.232Z,6.47
2023-04-07T14:22:01.129Z,6.87
2023-04-07T14:27:08.755Z,6.97
2023-04-07T14:32:13.732Z,6.40
2023-04-07T14:37:23.172Z,7.73
2023-04-07T14:42:31.515Z,7.77
2023-04-07T14:47:39.015Z,7.73
2023-04-07T14:52:44.785Z,7.60
2023-04-07T14:57:56.805Z,6.80
2023-04-07T15:03:02.031Z,7.20
2023-04-07T15:08:07.169Z,8.40
2023-04-07T15:13:14.939Z,8.23
2023-04-07T15:18:20.239Z,8.10
2023-04-07T15:23:25.340Z,8.53
2023-04-07T15:28:33.009Z,10.20
2023-04-07T15:33:40.270Z,9.97
2023-04-07T15:38:45.460Z,9.80
2023-04-07T15:43:53.930Z,9.33
2023-04-07T15:48:58.960Z,8.83
2023-04-07T15:54:04.015Z,9.17
2023-04-07T15:59:13.137Z,9.80
2023-04-07T16:04:19.470Z,7.57
2023-04-07T16:09:24.563Z,9.17
2023-04-07T16:14:32.255Z,6.20
2023-04-07T16:19:37.302Z,5.60
2023-04-07T16:24:42.435Z,5.47
2023-04-07T16:29:50.223Z,5.10
2023-04-07T16:34:55.353Z,6.37
2023-04-07T16:40:01.008Z,6.70
2023-04-07T16:45:09.850Z,7.93
2023-04-07T16:50:16.010Z,8.57
2023-04-07T16:55:21.330Z,8.50
2023-04-07T17:00:29.056Z,9.40
2023-04-07T17:05:34.152Z,10.27
2023-04-07T17:10:39.235Z,9.83
2023-04-07T17:15:48.625Z,10.10
2023-04-07T17:20:53.706Z,10.40
2023-04-07T17:26:01.665Z,9.47
2023-04-07T17:31:11.767Z,8.80
2023-04-07T17:36:17.231Z,9.07
2023-04-07T17:41:23.600Z,8.40
2023-04-07T17:46:31.298Z,8.37
2023-04-07T17:51:36.506Z,9.23
2023-04-07T17:56:42.261Z,8.87
2023-04-07T18:01:52.734Z,9.30
2023-04-07T18:06:57.916Z,10.47
2023-04-07T18:12:04.728Z,12.30
2023-04-07T18:17:13.856Z,12.00
2023-04-07T18:22:19.242Z,10.57
2023-04-07T18:27:25.646Z,11.83
2023-04-07T18:32:33.431Z,11.50
2023-04-07T18:37:42.311Z,12.63
2023-04-07T18:42:49.106Z,12.13
2023-04-07T18:47:56.928Z,14.03
2023-04-07T18:53:02.486Z,11.87
2023-04-07T18:58:08.784Z,11.93
2023-04-07T19:03:19.256Z,14.03
2023-04-07T19:08:24.479Z,12.07
2023-04-07T19:13:32.015Z,10.70
2023-04-07T19:18:39.866Z,11.23
2023-04-07T19:23:47.877Z,11.47
2023-04-07T19:28:53.148Z,10.07
2023-04-07T19:34:01.604Z,8.77
2023-04-07T19:39:09.040Z,9.10
2023-04-07T19:44:14.198Z,9.20
2023-04-07T19:49:22.142Z,9.13
2023-04-07T19:54:27.714Z,9.07
2023-04-07T19:59:37.278Z,8.47
2023-04-07T20:04:46.178Z,8.83
2023-04-07T20:09:54.998Z,8.73
2023-04-07T20:15:00.026Z,8.00
2023-04-07T20:20:08.582Z,8.50
2023-04-07T20:25:14.146Z,8.67
2023-04-07T20:30:19.433Z,8.50
2023-04-07T20:35:27.834Z,8.30
2023-04-07T20:40:36.879Z,9.47
2023-04-07T20:45:42.047Z,8.47
2023-04-07T20:50:49.825Z,8.00
2023-04-07T20:55:54.986Z,8.50
2023-04-07T21:01:01.416Z,8.57
2023-04-07T21:06:11.669Z,9.87
2023-04-07T21:11:16.758Z,8.57
2023-04-07T21:16:22.164Z,9.73
2023-04-07T21:21:29.889Z,9.20
2023-04-07T21:26:35.002Z,10.03
2023-04-07T21:31:40.609Z,8.90
2023-04-07T21:36:50.256Z,9.10
2023-04-07T21:41:57.149Z,9.67
2023-04-07T21:47:04.153Z,8.90
2023-04-07T21:52:12.052Z,10.17
2023-04-07T21:57:18.519Z,9.90
2023-04-07T22:02:24.064Z,10.10
2023-04-07T22:07:31.803Z,10.47
2023-04-07T22:12:36.950Z,10.57
2023-04-07T22:17:43.929Z,11.10
2023-04-07T22:22:51.602Z,11.97
2023-04-07T22:27:57.087Z,10.93
2023-04-07T22:33:02.493Z,11.60
2023-04-07T22:38:10.636Z,10.97
2023-04-07T22:43:15.762Z,10.33
2023-04-07T22:48:21.305Z,10.07
2023-04-07T22:53:29.107Z,10.87
2023-04-07T22:58:34.374Z,10.27
2023-04-07T23:03:39.493Z,10.03
2023-04-07T23:08:48.858Z,10.63
2023-04-07T23:13:54.305Z,10.67
2023-04-07T23:18:59.504Z,11.63
2023-04-07T23:24:07.238Z,11.23
2023-04-07T23:29:12.396Z,12.23
2023-04-07T23:34:20.231Z,12.17
2023-04-07T23:39:28.058Z,12.17
2023-04-07T23:44:33.505Z,12.53
2023-04-07T23:49:38.767Z,13.33
2023-04-07T23:54:46.427Z,13.60
2023-04-07T23:59:51.536Z,14.50
